Orange, Massachusetts
Current Conditions -  °F | °C
As of 2:52 PM on Tuesday 21 Oct 2014 (Local Time) from KORE Reporting Station
Overcast Overcast  
Wind Chill: 56°   Ceiling: 8000
Heat Index: 56°   Visibility: 10mi
Dew Point: 48°   Wind: 7mph
Humidity: 75%   Direction: 310°NW
Pressure: 29.91"   Gusts: NA
Location:  42.59°N, 72.3°W
Report Text: KORE 211852Z AUTO 31006KT 10SM FEW043 OVC080 13/09 A2991 RMK AO2 SLP131 T01330089
Loading
Personal Weather Stations






























Interactive Weather Map
Tropical Storm Tracking
New forecast layout! Learn more

10-Day Weather Forecast

Advertisements
Track Severe Weather on mobile